Terminal Aerodrome Forecast
Issued by NWS Tuscon, AZ

Home | Current Version | Previous Version | Text Only | Print | Product List | Glossary On
Versions: 1 2 3 4 5 6 7 8 9 10 11 12
000
FTUS45 KTWC 161700
TAFDUG
TAF
KDUG 161734Z 1618/1718 24006KT P6SM SKC
     FM161900 28018G30KT P6SM SKC
     FM170300 29012KT P6SM SCT200
     FM170800 VRB03KT P6SM SCT200=

USA.gov is the U.S. government's official web portal to all federal, state and local government web resources and services.